Platinum, Alaska
Current Conditions -  °F | °C
As of 3:56 PM on Sunday 23 Nov 2014 (Local Time) from PAPM Reporting Station
Overcast Overcast  
Wind Chill: 23°   Ceiling: 3300
Heat Index: 31°   Visibility: 10mi
Dew Point: 28°   Wind: 9mph
Humidity: 88%   Direction: 330°NNW
Pressure: 29.39"   Gusts: NA
Location:  59°N, 161.81°W
Report Text: PAPM 240056Z AUTO 33008KT 10SM OVC033 M01/M02 A2939 RMK AO2 TSNO T10051022 SLP953 $
Loading
Personal Weather Stations






























Interactive Weather Map New forecast layout! Learn more

10-Day Weather Forecast

Advertisements
Track Severe Weather on mobile